sensor_id;sensor_type;location;lat;lon;timestamp;pressure;altitude;pressure_sealevel;temperature;humidity
59435;BME280;45241;49.768;8.636;2023-04-04T00:00:06;101266.84;;;5.28;51.88
59435;BME280;45241;49.768;8.636;2023-04-04T00:02:32;101261.34;;;4.99;51.55
59435;BME280;45241;49.768;8.636;2023-04-04T00:04:57;101272.47;;;5.35;51.68
59435;BME280;45241;49.768;8.636;2023-04-04T00:07:22;101269.13;;;5.33;51.31
59435;BME280;45241;49.768;8.636;2023-04-04T00:09:48;101276.09;;;5.54;51.68
59435;BME280;45241;49.768;8.636;2023-04-04T00:12:13;101264.78;;;5.32;52.25
59435;BME280;45241;49.768;8.636;2023-04-04T00:14:38;101274.50;;;5.42;51.60
59435;BME280;45241;49.768;8.636;2023-04-04T00:17:03;101264.97;;;5.40;52.56
59435;BME280;45241;49.768;8.636;2023-04-04T00:19:29;101267.69;;;5.29;52.60
59435;BME280;45241;49.768;8.636;2023-04-04T00:21:54;101265.13;;;5.48;52.38
59435;BME280;45241;49.768;8.636;2023-04-04T00:24:19;101270.75;;;5.54;52.38
59435;BME280;45241;49.768;8.636;2023-04-04T00:26:44;101268.41;;;5.61;52.34
59435;BME280;45241;49.768;8.636;2023-04-04T00:29:10;101269.19;;;5.52;52.04
59435;BME280;45241;49.768;8.636;2023-04-04T00:31:35;101261.53;;;5.59;52.54
59435;BME280;45241;49.768;8.636;2023-04-04T00:34:00;101259.38;;;5.43;52.35
59435;BME280;45241;49.768;8.636;2023-04-04T00:36:25;101261.34;;;4.99;53.26
59435;BME280;45241;49.768;8.636;2023-04-04T00:38:51;101249.53;;;5.13;54.61
59435;BME280;45241;49.768;8.636;2023-04-04T00:41:16;101249.16;;;5.17;54.40
59435;BME280;45241;49.768;8.636;2023-04-04T00:43:41;101236.16;;;4.93;54.90
59435;BME280;45241;49.768;8.636;2023-04-04T00:46:06;101229.22;;;5.02;54.28
59435;BME280;45241;49.768;8.636;2023-04-04T00:48:32;101232.19;;;5.09;54.32
59435;BME280;45241;49.768;8.636;2023-04-04T00:50:57;101229.72;;;4.96;53.57
59435;BME280;45241;49.768;8.636;2023-04-04T00:53:22;101226.59;;;5.12;54.10
59435;BME280;45241;49.768;8.636;2023-04-04T00:55:47;101222.22;;;5.01;53.71
59435;BME280;45241;49.768;8.636;2023-04-04T00:58:13;101223.38;;;5.08;53.60
59435;BME280;45241;49.768;8.636;2023-04-04T01:00:38;101232.31;;;4.86;53.79
59435;BME280;45241;49.768;8.636;2023-04-04T01:03:03;101229.47;;;4.99;53.21
59435;BME280;45241;49.768;8.636;2023-04-04T01:05:31;101224.81;;;4.91;53.37
59435;BME280;45241;49.768;8.636;2023-04-04T01:07:56;101235.03;;;4.96;53.24
59435;BME280;45241;49.768;8.636;2023-04-04T01:10:22;101229.78;;;4.85;53.30
59435;BME280;45241;49.768;8.636;2023-04-04T01:12:47;101229.28;;;4.70;53.59
59435;BME280;45241;49.768;8.636;2023-04-04T01:15:12;101230.56;;;4.97;53.53
59435;BME280;45241;49.768;8.636;2023-04-04T01:17:38;101223.22;;;4.79;53.68
59435;BME280;45241;49.768;8.636;2023-04-04T01:20:09;101231.81;;;4.72;53.42
59435;BME280;45241;49.768;8.636;2023-04-04T01:22:37;101221.47;;;4.89;53.55
59435;BME280;45241;49.768;8.636;2023-04-04T01:25:03;101216.22;;;4.78;53.27
59435;BME280;45241;49.768;8.636;2023-04-04T01:27:29;101218.84;;;4.57;54.46
59435;BME280;45241;49.768;8.636;2023-04-04T01:29:55;101214.06;;;4.51;54.16
59435;BME280;45241;49.768;8.636;2023-04-04T01:32:35;101212.84;;;4.76;54.00
59435;BME280;45241;49.768;8.636;2023-04-04T01:37:48;101202.78;;;4.38;54.47
59435;BME280;45241;49.768;8.636;2023-04-04T01:40:20;101210.03;;;4.57;54.48
59435;BME280;45241;49.768;8.636;2023-04-04T01:42:46;101193.59;;;4.42;55.08
59435;BME280;45241;49.768;8.636;2023-04-04T01:45:12;101204.91;;;4.44;54.05
59435;BME280;45241;49.768;8.636;2023-04-04T01:47:40;101209.25;;;4.24;54.44
59435;BME280;45241;49.768;8.636;2023-04-04T01:50:06;101200.56;;;4.43;54.54
59435;BME280;45241;49.768;8.636;2023-04-04T01:52:32;101195.53;;;4.40;54.91
59435;BME280;45241;49.768;8.636;2023-04-04T01:54:58;101193.19;;;4.26;54.32
59435;BME280;45241;49.768;8.636;2023-04-04T01:57:23;101198.28;;;4.18;54.55
59435;BME280;45241;49.768;8.636;2023-04-04T01:59:48;101197.03;;;4.22;55.58
59435;BME280;45241;49.768;8.636;2023-04-04T02:02:14;101192.88;;;4.08;55.04
59435;BME280;45241;49.768;8.636;2023-04-04T02:04:39;101206.91;;;4.31;55.64
59435;BME280;45241;49.768;8.636;2023-04-04T02:07:04;101202.19;;;4.34;54.71
59435;BME280;45241;49.768;8.636;2023-04-04T02:09:30;101201.56;;;4.42;54.17
59435;BME280;45241;49.768;8.636;2023-04-04T02:11:56;101202.13;;;4.25;54.62
59435;BME280;45241;49.768;8.636;2023-04-04T02:14:21;101199.88;;;4.09;54.66
59435;BME280;45241;49.768;8.636;2023-04-04T02:16:46;101205.84;;;4.22;54.95
59435;BME280;45241;49.768;8.636;2023-04-04T02:19:11;101203.75;;;4.37;54.50
59435;BME280;45241;49.768;8.636;2023-04-04T02:21:37;101206.66;;;4.34;54.08
59435;BME280;45241;49.768;8.636;2023-04-04T02:24:02;101203.28;;;4.32;54.21
59435;BME280;45241;49.768;8.636;2023-04-04T02:26:27;101204.72;;;4.04;54.38
59435;BME280;45241;49.768;8.636;2023-04-04T02:28:52;101202.78;;;4.38;54.99
59435;BME280;45241;49.768;8.636;2023-04-04T02:31:17;101202.00;;;4.26;54.25
59435;BME280;45241;49.768;8.636;2023-04-04T02:33:43;101202.00;;;4.26;54.42
59435;BME280;45241;49.768;8.636;2023-04-04T02:36:08;101203.63;;;4.06;54.87
59435;BME280;45241;49.768;8.636;2023-04-04T02:38:33;101206.75;;;4.12;55.50
59435;BME280;45241;49.768;8.636;2023-04-04T02:40:58;101202.00;;;3.83;54.53
59435;BME280;45241;49.768;8.636;2023-04-04T02:43:23;101200.00;;;4.07;55.58
59435;BME280;45241;49.768;8.636;2023-04-04T02:45:49;101209.19;;;4.03;55.19
59435;BME280;45241;49.768;8.636;2023-04-04T02:48:14;101199.63;;;4.12;55.15
59435;BME280;45241;49.768;8.636;2023-04-04T02:50:39;101199.53;;;4.02;55.39
59435;BME280;45241;49.768;8.636;2023-04-04T02:53:05;101187.03;;;3.82;55.26
59435;BME280;45241;49.768;8.636;2023-04-04T02:55:30;101189.91;;;4.01;55.83
59435;BME280;45241;49.768;8.636;2023-04-04T02:57:55;101191.06;;;4.09;55.50
59435;BME280;45241;49.768;8.636;2023-04-04T03:00:22;101184.47;;;4.03;55.61
59435;BME280;45241;49.768;8.636;2023-04-04T03:02:53;101188.88;;;4.14;55.35
59435;BME280;45241;49.768;8.636;2023-04-04T03:05:19;101192.31;;;3.93;55.65
59435;BME280;45241;49.768;8.636;2023-04-04T03:07:44;101183.41;;;3.94;56.17
59435;BME280;45241;49.768;8.636;2023-04-04T03:10:09;101184.41;;;3.82;55.56
59435;BME280;45241;49.768;8.636;2023-04-04T03:12:35;101182.91;;;4.00;56.67
59435;BME280;45241;49.768;8.636;2023-04-04T03:15:00;101191.13;;;3.97;55.23
59435;BME280;45241;49.768;8.636;2023-04-04T03:17:25;101182.22;;;3.87;55.77
59435;BME280;45241;49.768;8.636;2023-04-04T03:19:51;101185.50;;;3.80;55.91
59435;BME280;45241;49.768;8.636;2023-04-04T03:22:16;101180.31;;;3.78;55.83
59435;BME280;45241;49.768;8.636;2023-04-04T03:24:41;101186.34;;;3.80;55.43
59435;BME280;45241;49.768;8.636;2023-04-04T03:27:06;101179.47;;;3.78;55.54
59435;BME280;45241;49.768;8.636;2023-04-04T03:29:31;101178.19;;;3.72;56.50
59435;BME280;45241;49.768;8.636;2023-04-04T03:31:56;101171.66;;;3.65;56.22
59435;BME280;45241;49.768;8.636;2023-04-04T03:34:22;101175.59;;;3.82;55.59
59435;BME280;45241;49.768;8.636;2023-04-04T03:36:48;101179.31;;;3.90;56.01
59435;BME280;45241;49.768;8.636;2023-04-04T03:39:13;101168.97;;;3.87;55.61
59435;BME280;45241;49.768;8.636;2023-04-04T03:41:39;101172.22;;;3.80;55.29
59435;BME280;45241;49.768;8.636;2023-04-04T03:44:04;101174.88;;;3.80;55.94
59435;BME280;45241;49.768;8.636;2023-04-04T03:46:30;101172.78;;;3.94;54.96
59435;BME280;45241;49.768;8.636;2023-04-04T03:48:55;101170.22;;;3.72;55.27
59435;BME280;45241;49.768;8.636;2023-04-04T03:51:24;101178.03;;;3.85;56.03
59435;BME280;45241;49.768;8.636;2023-04-04T03:53:49;101173.63;;;3.95;54.66
59435;BME280;45241;49.768;8.636;2023-04-04T03:56:15;101169.25;;;3.73;55.04
59435;BME280;45241;49.768;8.636;2023-04-04T03:58:40;101173.44;;;3.87;55.29
59435;BME280;45241;49.768;8.636;2023-04-04T04:01:05;101169.94;;;3.86;55.23
59435;BME280;45241;49.768;8.636;2023-04-04T04:03:30;101174.72;;;3.92;55.40
59435;BME280;45241;49.768;8.636;2023-04-04T04:05:56;101181.25;;;3.88;55.29
59435;BME280;45241;49.768;8.636;2023-04-04T04:08:21;101182.94;;;3.89;54.77
59435;BME280;45241;49.768;8.636;2023-04-04T04:10:46;101174.63;;;3.83;55.01
59435;BME280;45241;49.768;8.636;2023-04-04T04:13:11;101169.81;;;3.88;54.65
59435;BME280;45241;49.768;8.636;2023-04-04T04:15:37;101168.19;;;3.96;55.04
59435;BME280;45241;49.768;8.636;2023-04-04T04:18:02;101165.31;;;3.99;55.05
59435;BME280;45241;49.768;8.636;2023-04-04T04:20:27;101176.25;;;4.06;54.86
59435;BME280;45241;49.768;8.636;2023-04-04T04:22:52;101167.00;;;4.00;54.27
59435;BME280;45241;49.768;8.636;2023-04-04T04:25:17;101167.75;;;3.91;54.74
59435;BME280;45241;49.768;8.636;2023-04-04T04:27:43;101173.50;;;3.96;54.44
59435;BME280;45241;49.768;8.636;2023-04-04T04:30:09;101176.41;;;3.93;55.22
59435;BME280;45241;49.768;8.636;2023-04-04T04:32:34;101171.91;;;3.73;54.93
59435;BME280;45241;49.768;8.636;2023-04-04T04:34:59;101179.22;;;3.81;55.18
59435;BME280;45241;49.768;8.636;2023-04-04T04:37:25;101176.34;;;3.84;55.38
59435;BME280;45241;49.768;8.636;2023-04-04T04:39:51;101173.31;;;3.88;55.26
59435;BME280;45241;49.768;8.636;2023-04-04T04:42:17;101174.72;;;3.92;55.11
59435;BME280;45241;49.768;8.636;2023-04-04T04:44:42;101167.31;;;3.75;55.47
59435;BME280;45241;49.768;8.636;2023-04-04T04:47:07;101171.03;;;3.84;55.22
59435;BME280;45241;49.768;8.636;2023-04-04T04:49:32;101175.13;;;3.88;55.71
59435;BME280;45241;49.768;8.636;2023-04-04T04:51:58;101182.00;;;3.79;54.96
59435;BME280;45241;49.768;8.636;2023-04-04T04:54:23;101181.28;;;3.77;54.86
59435;BME280;45241;49.768;8.636;2023-04-04T04:56:48;101182.50;;;3.73;54.93
59435;BME280;45241;49.768;8.636;2023-04-04T04:59:14;101184.41;;;3.82;55.02
59435;BME280;45241;49.768;8.636;2023-04-04T05:01:39;101171.72;;;3.97;57.09
59435;BME280;45241;49.768;8.636;2023-04-04T05:04:04;101180.22;;;4.12;56.11
59435;BME280;45241;49.768;8.636;2023-04-04T05:06:30;101183.31;;;4.17;56.00
59435;BME280;45241;49.768;8.636;2023-04-04T05:08:55;101186.50;;;4.11;54.85
59435;BME280;45241;49.768;8.636;2023-04-04T05:11:20;101189.63;;;4.04;55.03
59435;BME280;45241;49.768;8.636;2023-04-04T05:13:45;101188.78;;;4.04;55.08
59435;BME280;45241;49.768;8.636;2023-04-04T05:16:11;101190.91;;;3.89;54.72
59435;BME280;45241;49.768;8.636;2023-04-04T05:18:36;101188.97;;;3.91;54.93
59435;BME280;45241;49.768;8.636;2023-04-04T05:21:01;101184.06;;;3.75;55.54
59435;BME280;45241;49.768;8.636;2023-04-04T05:23:27;101193.56;;;3.78;54.98
59435;BME280;45241;49.768;8.636;2023-04-04T05:25:52;101195.97;;;3.81;55.51
59435;BME280;45241;49.768;8.636;2023-04-04T05:28:18;101195.00;;;3.82;54.90
59435;BME280;45241;49.768;8.636;2023-04-04T05:30:44;101201.28;;;3.81;56.38
59435;BME280;45241;49.768;8.636;2023-04-04T05:33:10;101197.16;;;3.99;56.10
59435;BME280;45241;49.768;8.636;2023-04-04T05:35:35;101198.66;;;3.70;56.03
59435;BME280;45241;49.768;8.636;2023-04-04T05:38:00;101193.78;;;3.97;55.63
59435;BME280;45241;49.768;8.636;2023-04-04T05:40:26;101193.41;;;3.91;55.72
59435;BME280;45241;49.768;8.636;2023-04-04T05:42:57;101200.41;;;3.92;55.14
59435;BME280;45241;49.768;8.636;2023-04-04T05:45:23;101198.13;;;3.98;54.96
59435;BME280;45241;49.768;8.636;2023-04-04T05:47:49;101200.53;;;3.90;55.54
59435;BME280;45241;49.768;8.636;2023-04-04T05:50:14;101194.25;;;3.91;55.42
59435;BME280;45241;49.768;8.636;2023-04-04T05:52:39;101197.94;;;4.11;55.10
59435;BME280;45241;49.768;8.636;2023-04-04T05:55:05;101195.44;;;4.10;54.93
59435;BME280;45241;49.768;8.636;2023-04-04T05:57:30;101200.63;;;4.32;54.97
59435;BME280;45241;49.768;8.636;2023-04-04T05:59:56;101194.53;;;4.20;54.88
59435;BME280;45241;49.768;8.636;2023-04-04T06:02:22;101195.66;;;4.06;54.42
59435;BME280;45241;49.768;8.636;2023-04-04T06:04:47;101195.88;;;4.15;55.04
59435;BME280;45241;49.768;8.636;2023-04-04T06:07:12;101197.69;;;4.14;54.55
59435;BME280;45241;49.768;8.636;2023-04-04T06:09:38;101201.84;;;4.28;54.44
59435;BME280;45241;49.768;8.636;2023-04-04T06:12:04;101203.22;;;4.43;54.75
59435;BME280;45241;49.768;8.636;2023-04-04T06:14:29;101210.09;;;4.46;54.25
59435;BME280;45241;49.768;8.636;2023-04-04T06:16:55;101203.81;;;4.47;53.98
59435;BME280;45241;49.768;8.636;2023-04-04T06:19:20;101211.41;;;4.51;54.30
59435;BME280;45241;49.768;8.636;2023-04-04T06:21:45;101215.09;;;4.39;53.63
59435;BME280;45241;49.768;8.636;2023-04-04T06:24:11;101215.81;;;4.62;53.40
59435;BME280;45241;49.768;8.636;2023-04-04T06:26:36;101210.72;;;4.49;53.49
59435;BME280;45241;49.768;8.636;2023-04-04T06:29:01;101217.88;;;4.38;53.27
59435;BME280;45241;49.768;8.636;2023-04-04T06:31:26;101213.03;;;4.63;53.62
59435;BME280;45241;49.768;8.636;2023-04-04T06:33:52;101208.94;;;4.80;53.06
59435;BME280;45241;49.768;8.636;2023-04-04T06:36:17;101220.47;;;4.90;53.25
59435;BME280;45241;49.768;8.636;2023-04-04T06:38:43;101217.41;;;4.95;53.21
59435;BME280;45241;49.768;8.636;2023-04-04T06:41:08;101222.16;;;4.91;52.52
59435;BME280;45241;49.768;8.636;2023-04-04T06:43:33;101224.88;;;5.01;52.85
59435;BME280;45241;49.768;8.636;2023-04-04T06:45:58;101222.81;;;5.05;52.66
59435;BME280;45241;49.768;8.636;2023-04-04T06:48:24;101231.25;;;5.19;52.88
59435;BME280;45241;49.768;8.636;2023-04-04T06:50:49;101229.31;;;5.21;52.43
59435;BME280;45241;49.768;8.636;2023-04-04T06:53:14;101228.19;;;5.24;52.48
59435;BME280;45241;49.768;8.636;2023-04-04T06:55:39;101236.38;;;5.32;52.10
59435;BME280;45241;49.768;8.636;2023-04-04T06:58:05;101231.78;;;5.13;51.71
59435;BME280;45241;49.768;8.636;2023-04-04T07:00:30;101236.31;;;5.22;51.50
59435;BME280;45241;49.768;8.636;2023-04-04T07:02:56;101231.66;;;5.45;51.76
59435;BME280;45241;49.768;8.636;2023-04-04T07:05:23;101239.22;;;5.50;51.83
59435;BME280;45241;49.768;8.636;2023-04-04T07:07:50;101232.50;;;5.46;51.10
59435;BME280;45241;49.768;8.636;2023-04-04T07:10:16;101244.88;;;5.57;51.51
59435;BME280;45241;49.768;8.636;2023-04-04T07:12:41;101240.06;;;5.50;50.82
59435;BME280;45241;49.768;8.636;2023-04-04T07:15:07;101235.94;;;5.67;51.00
59435;BME280;45241;49.768;8.636;2023-04-04T07:17:35;101236.06;;;5.56;51.18
59435;BME280;45241;49.768;8.636;2023-04-04T07:20:01;101245.84;;;5.65;50.68
59435;BME280;45241;49.768;8.636;2023-04-04T07:22:26;101242.50;;;5.63;50.62
59435;BME280;45241;49.768;8.636;2023-04-04T07:24:51;101246.72;;;5.66;50.91
59435;BME280;45241;49.768;8.636;2023-04-04T07:27:17;101243.53;;;5.72;50.72
59435;BME280;45241;49.768;8.636;2023-04-04T07:29:42;101244.84;;;5.97;51.23
59435;BME280;45241;49.768;8.636;2023-04-04T07:32:07;101240.94;;;6.10;50.52
59435;BME280;45241;49.768;8.636;2023-04-04T07:34:32;101243.19;;;6.05;49.85
59435;BME280;45241;49.768;8.636;2023-04-04T07:36:57;101245.94;;;5.84;50.45
59435;BME280;45241;49.768;8.636;2023-04-04T07:39:23;101239.78;;;5.84;49.68
59435;BME280;45241;49.768;8.636;2023-04-04T07:41:48;101239.81;;;5.94;49.87
59435;BME280;45241;49.768;8.636;2023-04-04T07:44:13;101231.69;;;6.14;49.52
59435;BME280;45241;49.768;8.636;2023-04-04T07:46:39;101233.78;;;6.11;49.82
59435;BME280;45241;49.768;8.636;2023-04-04T07:49:04;101234.66;;;6.31;49.33
59435;BME280;45241;49.768;8.636;2023-04-04T07:51:29;101232.25;;;6.28;49.69
59435;BME280;45241;49.768;8.636;2023-04-04T07:53:55;101231.03;;;6.32;48.84
59435;BME280;45241;49.768;8.636;2023-04-04T07:56:21;101238.84;;;6.43;48.99
59435;BME280;45241;49.768;8.636;2023-04-04T07:58:46;101236.50;;;6.59;49.04
59435;BME280;45241;49.768;8.636;2023-04-04T08:01:11;101232.00;;;6.60;49.15
59435;BME280;45241;49.768;8.636;2023-04-04T08:03:37;101234.38;;;6.63;48.49
59435;BME280;45241;49.768;8.636;2023-04-04T08:06:02;101233.69;;;6.61;48.71
59435;BME280;45241;49.768;8.636;2023-04-04T08:08:27;101237.59;;;6.76;48.31
59435;BME280;45241;49.768;8.636;2023-04-04T08:10:53;101241.94;;;6.77;47.75
59435;BME280;45241;49.768;8.636;2023-04-04T08:13:19;101234.63;;;6.98;48.33
59435;BME280;45241;49.768;8.636;2023-04-04T08:15:44;101237.28;;;6.89;47.30
59435;BME280;45241;49.768;8.636;2023-04-04T08:18:09;101240.91;;;7.17;47.09
59435;BME280;45241;49.768;8.636;2023-04-04T08:20:34;101231.97;;;6.89;47.53
59435;BME280;45241;49.768;8.636;2023-04-04T08:23:00;101235.19;;;6.83;46.35
59435;BME280;45241;49.768;8.636;2023-04-04T08:25:25;101230.53;;;7.04;47.10
59435;BME280;45241;49.768;8.636;2023-04-04T08:27:51;101231.44;;;7.32;46.82
59435;BME280;45241;49.768;8.636;2023-04-04T08:30:16;101234.38;;;7.39;47.12
59435;BME280;45241;49.768;8.636;2023-04-04T08:32:41;101233.16;;;7.60;46.43
59435;BME280;45241;49.768;8.636;2023-04-04T08:35:09;101238.06;;;7.65;47.04
59435;BME280;45241;49.768;8.636;2023-04-04T08:37:35;101243.94;;;7.69;46.44
59435;BME280;45241;49.768;8.636;2023-04-04T08:40:02;101243.28;;;7.84;46.90
59435;BME280;45241;49.768;8.636;2023-04-04T08:42:27;101238.22;;;7.64;45.74
59435;BME280;45241;49.768;8.636;2023-04-04T08:44:54;101231.56;;;7.40;45.37
59435;BME280;45241;49.768;8.636;2023-04-04T08:47:21;101236.06;;;7.67;45.60
59435;BME280;45241;49.768;8.636;2023-04-04T08:49:48;101242.06;;;7.79;45.65
59435;BME280;45241;49.768;8.636;2023-04-04T08:52:14;101228.78;;;7.87;45.56
59435;BME280;45241;49.768;8.636;2023-04-04T08:54:40;101215.06;;;8.00;44.10
59435;BME280;45241;49.768;8.636;2023-04-04T08:57:06;101216.31;;;8.05;46.02
59435;BME280;45241;49.768;8.636;2023-04-04T08:59:32;101211.13;;;8.22;44.44
59435;BME280;45241;49.768;8.636;2023-04-04T09:02:13;101212.66;;;7.88;44.15
59435;BME280;45241;49.768;8.636;2023-04-04T09:04:39;101217.38;;;8.12;45.30
59435;BME280;45241;49.768;8.636;2023-04-04T09:07:05;101215.44;;;8.14;43.71
59435;BME280;45241;49.768;8.636;2023-04-04T09:09:30;101221.28;;;8.18;44.35
59435;BME280;45241;49.768;8.636;2023-04-04T09:12:01;101222.69;;;8.40;45.08
59435;BME280;45241;49.768;8.636;2023-04-04T09:14:28;101212.75;;;8.14;43.81
59435;BME280;45241;49.768;8.636;2023-04-04T09:16:54;101211.75;;;8.15;43.59
59435;BME280;45241;49.768;8.636;2023-04-04T09:19:19;101206.94;;;8.19;43.46
59435;BME280;45241;49.768;8.636;2023-04-04T09:21:48;101209.75;;;8.71;44.22
59435;BME280;45241;49.768;8.636;2023-04-04T09:24:13;101215.63;;;8.39;42.37
59435;BME280;45241;49.768;8.636;2023-04-04T09:26:48;101211.75;;;8.95;43.26
59435;BME280;45241;49.768;8.636;2023-04-04T09:29:18;101203.34;;;8.90;42.59
59435;BME280;45241;49.768;8.636;2023-04-04T09:31:44;101197.78;;;8.57;43.34
59435;BME280;45241;49.768;8.636;2023-04-04T09:34:11;101205.44;;;9.04;43.59
59435;BME280;45241;49.768;8.636;2023-04-04T09:36:36;101205.97;;;9.33;42.58
59435;BME280;45241;49.768;8.636;2023-04-04T09:39:02;101202.22;;;9.18;42.58
59435;BME280;45241;49.768;8.636;2023-04-04T09:41:28;101205.22;;;9.49;42.70
59435;BME280;45241;49.768;8.636;2023-04-04T09:43:54;101204.91;;;9.52;41.23
59435;BME280;45241;49.768;8.636;2023-04-04T09:46:21;101205.78;;;9.69;41.17
59435;BME280;45241;49.768;8.636;2023-04-04T09:48:47;101197.94;;;9.33;40.02
59435;BME280;45241;49.768;8.636;2023-04-04T09:51:12;101201.03;;;9.47;41.00
59435;BME280;45241;49.768;8.636;2023-04-04T09:53:38;101199.63;;;9.77;41.08
59435;BME280;45241;49.768;8.636;2023-04-04T09:56:05;101208.66;;;9.76;40.11
59435;BME280;45241;49.768;8.636;2023-04-04T09:58:31;101214.41;;;9.47;39.22
59435;BME280;45241;49.768;8.636;2023-04-04T10:01:00;101207.50;;;9.70;39.58
59435;BME280;45241;49.768;8.636;2023-04-04T10:03:26;101198.53;;;9.53;39.31
59435;BME280;45241;49.768;8.636;2023-04-04T10:06:25;101195.78;;;9.71;39.63
59435;BME280;45241;49.768;8.636;2023-04-04T10:08:43;101199.56;;;10.11;40.68
59435;BME280;45241;49.768;8.636;2023-04-04T10:11:08;101201.56;;;10.09;39.88
59435;BME280;45241;49.768;8.636;2023-04-04T10:13:34;101197.50;;;9.88;40.30
59435;BME280;45241;49.768;8.636;2023-04-04T10:16:01;101195.56;;;10.23;40.56
59435;BME280;45241;49.768;8.636;2023-04-04T10:18:28;101194.03;;;9.96;38.77
59435;BME280;45241;49.768;8.636;2023-04-04T10:20:54;101197.34;;;9.90;39.38
59435;BME280;45241;49.768;8.636;2023-04-04T10:23:21;101185.47;;;10.01;38.52
59435;BME280;45241;49.768;8.636;2023-04-04T10:25:47;101182.66;;;10.10;38.70
59435;BME280;45241;49.768;8.636;2023-04-04T10:28:13;101187.84;;;10.69;39.76
59435;BME280;45241;49.768;8.636;2023-04-04T10:30:40;101199.06;;;10.72;39.93
59435;BME280;45241;49.768;8.636;2023-04-04T10:33:06;101190.88;;;10.90;38.91
59435;BME280;45241;49.768;8.636;2023-04-04T10:35:32;101185.38;;;10.51;39.03
59435;BME280;45241;49.768;8.636;2023-04-04T10:37:59;101200.38;;;11.64;39.22
59435;BME280;45241;49.768;8.636;2023-04-04T10:40:27;101194.38;;;10.82;38.33
59435;BME280;45241;49.768;8.636;2023-04-04T10:42:56;101191.31;;;11.18;38.60
59435;BME280;45241;49.768;8.636;2023-04-04T10:45:23;101184.41;;;11.40;37.00
59435;BME280;45241;49.768;8.636;2023-04-04T10:47:49;101184.97;;;11.58;38.81
59435;BME280;45241;49.768;8.636;2023-04-04T10:50:15;101185.59;;;11.21;37.07
59435;BME280;45241;49.768;8.636;2023-04-04T10:52:43;101183.03;;;11.44;38.06
59435;BME280;45241;49.768;8.636;2023-04-04T10:55:13;101186.84;;;11.50;38.34
59435;BME280;45241;49.768;8.636;2023-04-04T10:57:45;101184.88;;;11.83;38.03
59435;BME280;45241;49.768;8.636;2023-04-04T11:05:15;101165.69;;;11.55;37.38
59435;BME280;45241;49.768;8.636;2023-04-04T11:07:43;101163.16;;;11.92;37.88
59435;BME280;45241;49.768;8.636;2023-04-04T11:10:21;101159.22;;;12.26;36.94
59435;BME280;45241;49.768;8.636;2023-04-04T11:12:50;101144.41;;;12.30;37.21
59435;BME280;45241;49.768;8.636;2023-04-04T11:15:19;101143.56;;;12.67;37.48
59435;BME280;45241;49.768;8.636;2023-04-04T11:20:20;101137.09;;;12.76;37.97
59435;BME280;45241;49.768;8.636;2023-04-04T11:22:48;101136.56;;;11.97;37.31
59435;BME280;45241;49.768;8.636;2023-04-04T11:25:30;101138.53;;;12.64;38.27
59435;BME280;45241;49.768;8.636;2023-04-04T11:27:56;101135.53;;;12.82;37.43
59435;BME280;45241;49.768;8.636;2023-04-04T11:30:22;101140.97;;;12.59;35.28
59435;BME280;45241;49.768;8.636;2023-04-04T11:32:48;101134.44;;;12.53;36.93
59435;BME280;45241;49.768;8.636;2023-04-04T11:35:13;101131.09;;;12.51;37.44
59435;BME280;45241;49.768;8.636;2023-04-04T11:37:57;101126.50;;;12.75;36.94
59435;BME280;45241;49.768;8.636;2023-04-04T11:40:37;101127.31;;;13.13;36.90
59435;BME280;45241;49.768;8.636;2023-04-04T11:43:07;101125.97;;;13.38;35.32
59435;BME280;45241;49.768;8.636;2023-04-04T11:45:34;101124.69;;;13.70;35.68
59435;BME280;45241;49.768;8.636;2023-04-04T11:47:59;101119.28;;;13.49;37.00
59435;BME280;45241;49.768;8.636;2023-04-04T11:50:25;101113.69;;;13.87;36.42
59435;BME280;45241;49.768;8.636;2023-04-04T11:52:50;101112.41;;;13.32;36.21
59435;BME280;45241;49.768;8.636;2023-04-04T11:55:18;101123.06;;;12.66;36.61
59435;BME280;45241;49.768;8.636;2023-04-04T11:57:45;101109.91;;;12.86;38.01
59435;BME280;45241;49.768;8.636;2023-04-04T12:00:11;101111.94;;;14.22;36.73
59435;BME280;45241;49.768;8.636;2023-04-04T12:02:39;101102.78;;;13.95;35.89
59435;BME280;45241;49.768;8.636;2023-04-04T12:05:05;101090.53;;;13.92;35.89
59435;BME280;45241;49.768;8.636;2023-04-04T12:07:32;101094.34;;;13.62;35.99
59435;BME280;45241;49.768;8.636;2023-04-04T12:09:58;101093.34;;;14.27;36.08
59435;BME280;45241;49.768;8.636;2023-04-04T12:12:23;101093.97;;;14.07;34.95
59435;BME280;45241;49.768;8.636;2023-04-04T12:14:52;101087.03;;;13.56;35.08
59435;BME280;45241;49.768;8.636;2023-04-04T12:17:17;101084.47;;;13.33;36.39
59435;BME280;45241;49.768;8.636;2023-04-04T12:19:42;101082.19;;;13.87;36.56
59435;BME280;45241;49.768;8.636;2023-04-04T12:22:08;101073.75;;;13.54;36.07
59435;BME280;45241;49.768;8.636;2023-04-04T12:24:34;101074.78;;;13.53;35.48
59435;BME280;45241;49.768;8.636;2023-04-04T12:26:59;101080.00;;;13.76;37.06
59435;BME280;45241;49.768;8.636;2023-04-04T12:29:25;101076.22;;;13.34;36.11
59435;BME280;45241;49.768;8.636;2023-04-04T12:32:00;101082.38;;;14.07;37.41
59435;BME280;45241;49.768;8.636;2023-04-04T12:34:29;101067.41;;;13.62;35.85
59435;BME280;45241;49.768;8.636;2023-04-04T12:36:55;101074.75;;;13.89;36.29
59435;BME280;45241;49.768;8.636;2023-04-04T12:39:22;101074.13;;;14.36;35.74
59435;BME280;45241;49.768;8.636;2023-04-04T12:41:55;101065.84;;;14.38;35.74
59435;BME280;45241;49.768;8.636;2023-04-04T12:44:30;101065.16;;;14.08;34.50
59435;BME280;45241;49.768;8.636;2023-04-04T12:46:57;101083.94;;;14.23;36.25
59435;BME280;45241;49.768;8.636;2023-04-04T12:49:26;101083.31;;;14.42;34.94
59435;BME280;45241;49.768;8.636;2023-04-04T12:51:51;101063.25;;;14.79;33.49
59435;BME280;45241;49.768;8.636;2023-04-04T12:54:24;101058.09;;;15.39;35.14
59435;BME280;45241;49.768;8.636;2023-04-04T12:56:53;101056.38;;;14.49;34.79
59435;BME280;45241;49.768;8.636;2023-04-04T12:59:29;101055.41;;;14.07;35.02
59435;BME280;45241;49.768;8.636;2023-04-04T13:01:55;101059.53;;;14.52;34.41